sensor_id;sensor_type;location;lat;lon;timestamp;pressure;altitude;pressure_sealevel;temperature
45850;BMP180;10739;52.198;20.908;2023-05-10T00:00:18;100986.00;;;12.50
45850;BMP180;10739;52.198;20.908;2023-05-10T00:02:44;100988.00;;;12.40
45850;BMP180;10739;52.198;20.908;2023-05-10T00:05:10;100982.00;;;12.00
45850;BMP180;10739;52.198;20.908;2023-05-10T00:07:37;100978.00;;;11.80
45850;BMP180;10739;52.198;20.908;2023-05-10T00:10:03;100983.00;;;12.20
45850;BMP180;10739;52.198;20.908;2023-05-10T00:12:30;100976.00;;;12.20
45850;BMP180;10739;52.198;20.908;2023-05-10T00:14:56;100978.00;;;12.00
45850;BMP180;10739;52.198;20.908;2023-05-10T00:17:22;100973.00;;;11.90
45850;BMP180;10739;52.198;20.908;2023-05-10T00:19:48;100970.00;;;11.80
45850;BMP180;10739;52.198;20.908;2023-05-10T00:22:15;100967.00;;;12.20
45850;BMP180;10739;52.198;20.908;2023-05-10T00:24:41;100964.00;;;12.10
45850;BMP180;10739;52.198;20.908;2023-05-10T00:27:07;100964.00;;;11.90
45850;BMP180;10739;52.198;20.908;2023-05-10T00:29:34;100960.00;;;11.90
45850;BMP180;10739;52.198;20.908;2023-05-10T00:32:00;100959.00;;;11.90
45850;BMP180;10739;52.198;20.908;2023-05-10T00:34:26;100956.00;;;11.90
45850;BMP180;10739;52.198;20.908;2023-05-10T00:36:53;100966.00;;;12.10
45850;BMP180;10739;52.198;20.908;2023-05-10T00:39:19;100961.00;;;11.70
45850;BMP180;10739;52.198;20.908;2023-05-10T00:41:46;100958.00;;;12.00
45850;BMP180;10739;52.198;20.908;2023-05-10T00:44:12;100955.00;;;11.80
45850;BMP180;10739;52.198;20.908;2023-05-10T00:46:38;100950.00;;;11.60
45850;BMP180;10739;52.198;20.908;2023-05-10T00:49:05;100955.00;;;11.60
45850;BMP180;10739;52.198;20.908;2023-05-10T00:51:31;100948.00;;;11.50
45850;BMP180;10739;52.198;20.908;2023-05-10T00:53:58;100948.00;;;11.70
45850;BMP180;10739;52.198;20.908;2023-05-10T00:56:26;100948.00;;;11.80
45850;BMP180;10739;52.198;20.908;2023-05-10T00:58:54;100951.00;;;11.70
45850;BMP180;10739;52.198;20.908;2023-05-10T01:01:20;100946.00;;;11.70
45850;BMP180;10739;52.198;20.908;2023-05-10T01:03:47;100950.00;;;12.00
45850;BMP180;10739;52.198;20.908;2023-05-10T01:06:14;100949.00;;;11.80
45850;BMP180;10739;52.198;20.908;2023-05-10T01:08:40;100949.00;;;11.50
45850;BMP180;10739;52.198;20.908;2023-05-10T01:11:07;100939.00;;;11.70
45850;BMP180;10739;52.198;20.908;2023-05-10T01:13:39;100942.00;;;11.40
45850;BMP180;10739;52.198;20.908;2023-05-10T01:16:06;100946.00;;;11.40
45850;BMP180;10739;52.198;20.908;2023-05-10T01:18:38;100938.00;;;11.40
45850;BMP180;10739;52.198;20.908;2023-05-10T01:24:18;100929.00;;;11.60
45850;BMP180;10739;52.198;20.908;2023-05-10T01:27:25;100934.00;;;11.20
45850;BMP180;10739;52.198;20.908;2023-05-10T01:33:33;100937.00;;;11.30
45850;BMP180;10739;52.198;20.908;2023-05-10T01:36:32;100947.00;;;11.40
45850;BMP180;10739;52.198;20.908;2023-05-10T01:39:13;100944.00;;;11.30
45850;BMP180;10739;52.198;20.908;2023-05-10T01:42:11;100936.00;;;11.10
45850;BMP180;10739;52.198;20.908;2023-05-10T01:50:04;100934.00;;;11.20
45850;BMP180;10739;52.198;20.908;2023-05-10T01:52:39;100935.00;;;11.50
45850;BMP180;10739;52.198;20.908;2023-05-10T01:55:14;100922.00;;;11.00
45850;BMP180;10739;52.198;20.908;2023-05-10T01:57:46;100919.00;;;11.20
45850;BMP180;10739;52.198;20.908;2023-05-10T02:00:15;100931.00;;;11.30
45850;BMP180;10739;52.198;20.908;2023-05-10T02:02:48;100918.00;;;11.40
45850;BMP180;10739;52.198;20.908;2023-05-10T02:05:17;100919.00;;;11.40
45850;BMP180;10739;52.198;20.908;2023-05-10T02:07:44;100923.00;;;10.90
45850;BMP180;10739;52.198;20.908;2023-05-10T02:10:12;100916.00;;;11.00
45850;BMP180;10739;52.198;20.908;2023-05-10T02:12:45;100919.00;;;11.00
45850;BMP180;10739;52.198;20.908;2023-05-10T02:15:19;100915.00;;;11.00
45850;BMP180;10739;52.198;20.908;2023-05-10T02:17:48;100914.00;;;10.90
45850;BMP180;10739;52.198;20.908;2023-05-10T02:20:17;100916.00;;;11.00
45850;BMP180;10739;52.198;20.908;2023-05-10T02:22:51;100910.00;;;10.80
45850;BMP180;10739;52.198;20.908;2023-05-10T02:25:21;100917.00;;;10.90
45850;BMP180;10739;52.198;20.908;2023-05-10T02:27:50;100914.00;;;11.30
45850;BMP180;10739;52.198;20.908;2023-05-10T02:30:19;100911.00;;;11.10
45850;BMP180;10739;52.198;20.908;2023-05-10T02:32:46;100915.00;;;10.80
45850;BMP180;10739;52.198;20.908;2023-05-10T02:35:13;100917.00;;;10.80
45850;BMP180;10739;52.198;20.908;2023-05-10T02:37:41;100912.00;;;10.90
45850;BMP180;10739;52.198;20.908;2023-05-10T02:40:11;100919.00;;;10.70
45850;BMP180;10739;52.198;20.908;2023-05-10T02:42:41;100909.00;;;10.90
45850;BMP180;10739;52.198;20.908;2023-05-10T02:45:13;100919.00;;;10.70
45850;BMP180;10739;52.198;20.908;2023-05-10T02:47:40;100909.00;;;11.00
45850;BMP180;10739;52.198;20.908;2023-05-10T02:50:07;100922.00;;;10.60
45850;BMP180;10739;52.198;20.908;2023-05-10T02:52:49;100919.00;;;11.00
45850;BMP180;10739;52.198;20.908;2023-05-10T02:55:25;100926.00;;;10.70
45850;BMP180;10739;52.198;20.908;2023-05-10T02:58:00;100912.00;;;10.40
45850;BMP180;10739;52.198;20.908;2023-05-10T03:00:26;100925.00;;;10.80
45850;BMP180;10739;52.198;20.908;2023-05-10T03:02:53;100924.00;;;10.60
45850;BMP180;10739;52.198;20.908;2023-05-10T03:05:20;100926.00;;;10.20
45850;BMP180;10739;52.198;20.908;2023-05-10T03:07:47;100925.00;;;10.60
45850;BMP180;10739;52.198;20.908;2023-05-10T03:10:13;100924.00;;;10.60
45850;BMP180;10739;52.198;20.908;2023-05-10T03:13:28;100919.00;;;10.70
45850;BMP180;10739;52.198;20.908;2023-05-10T03:16:07;100919.00;;;10.20
45850;BMP180;10739;52.198;20.908;2023-05-10T03:18:48;100922.00;;;10.70
45850;BMP180;10739;52.198;20.908;2023-05-10T03:21:18;100925.00;;;10.80
45850;BMP180;10739;52.198;20.908;2023-05-10T03:23:57;100928.00;;;10.70
45850;BMP180;10739;52.198;20.908;2023-05-10T03:26:27;100913.00;;;10.40
45850;BMP180;10739;52.198;20.908;2023-05-10T03:28:55;100919.00;;;10.30
45850;BMP180;10739;52.198;20.908;2023-05-10T03:31:22;100917.00;;;10.80
45850;BMP180;10739;52.198;20.908;2023-05-10T03:33:49;100914.00;;;10.40
45850;BMP180;10739;52.198;20.908;2023-05-10T03:36:16;100918.00;;;10.60
45850;BMP180;10739;52.198;20.908;2023-05-10T03:38:43;100920.00;;;10.70
45850;BMP180;10739;52.198;20.908;2023-05-10T03:41:09;100902.00;;;10.40
45850;BMP180;10739;52.198;20.908;2023-05-10T03:43:35;100907.00;;;10.70
45850;BMP180;10739;52.198;20.908;2023-05-10T03:46:04;100915.00;;;10.50
45850;BMP180;10739;52.198;20.908;2023-05-10T03:48:32;100917.00;;;10.60
45850;BMP180;10739;52.198;20.908;2023-05-10T03:50:58;100912.00;;;10.70
45850;BMP180;10739;52.198;20.908;2023-05-10T03:53:25;100908.00;;;10.50
45850;BMP180;10739;52.198;20.908;2023-05-10T03:55:51;100899.00;;;10.50
45850;BMP180;10739;52.198;20.908;2023-05-10T03:58:17;100912.00;;;10.40
45850;BMP180;10739;52.198;20.908;2023-05-10T04:00:44;100906.00;;;10.50
45850;BMP180;10739;52.198;20.908;2023-05-10T04:03:12;100907.00;;;10.50
45850;BMP180;10739;52.198;20.908;2023-05-10T04:05:39;100918.00;;;10.70
45850;BMP180;10739;52.198;20.908;2023-05-10T04:08:05;100909.00;;;10.40
45850;BMP180;10739;52.198;20.908;2023-05-10T04:10:32;100911.00;;;10.90
45850;BMP180;10739;52.198;20.908;2023-05-10T04:12:58;100914.00;;;10.80
45850;BMP180;10739;52.198;20.908;2023-05-10T04:15:24;100922.00;;;10.70
45850;BMP180;10739;52.198;20.908;2023-05-10T04:17:51;100915.00;;;11.20
45850;BMP180;10739;52.198;20.908;2023-05-10T04:20:17;100915.00;;;11.00
45850;BMP180;10739;52.198;20.908;2023-05-10T04:22:43;100922.00;;;11.20
45850;BMP180;10739;52.198;20.908;2023-05-10T04:25:10;100921.00;;;10.80
45850;BMP180;10739;52.198;20.908;2023-05-10T04:27:36;100918.00;;;11.00
45850;BMP180;10739;52.198;20.908;2023-05-10T04:30:03;100918.00;;;10.90
45850;BMP180;10739;52.198;20.908;2023-05-10T04:32:29;100919.00;;;10.80
45850;BMP180;10739;52.198;20.908;2023-05-10T04:34:55;100919.00;;;10.90
45850;BMP180;10739;52.198;20.908;2023-05-10T04:37:22;100919.00;;;11.00
45850;BMP180;10739;52.198;20.908;2023-05-10T04:39:48;100917.00;;;11.00
45850;BMP180;10739;52.198;20.908;2023-05-10T04:42:15;100919.00;;;11.30
45850;BMP180;10739;52.198;20.908;2023-05-10T04:44:41;100922.00;;;11.30
45850;BMP180;10739;52.198;20.908;2023-05-10T04:47:09;100917.00;;;11.60
45850;BMP180;10739;52.198;20.908;2023-05-10T04:49:35;100928.00;;;11.40
45850;BMP180;10739;52.198;20.908;2023-05-10T04:52:01;100923.00;;;11.70
45850;BMP180;10739;52.198;20.908;2023-05-10T04:54:28;100926.00;;;12.00
45850;BMP180;10739;52.198;20.908;2023-05-10T04:56:54;100926.00;;;11.80
45850;BMP180;10739;52.198;20.908;2023-05-10T04:59:20;100935.00;;;12.10
45850;BMP180;10739;52.198;20.908;2023-05-10T05:01:47;100928.00;;;12.00
45850;BMP180;10739;52.198;20.908;2023-05-10T05:04:13;100924.00;;;11.90
45850;BMP180;10739;52.198;20.908;2023-05-10T05:06:40;100920.00;;;12.20
45850;BMP180;10739;52.198;20.908;2023-05-10T05:09:06;100924.00;;;12.30
45850;BMP180;10739;52.198;20.908;2023-05-10T05:11:33;100928.00;;;12.40
45850;BMP180;10739;52.198;20.908;2023-05-10T05:13:59;100932.00;;;12.10
45850;BMP180;10739;52.198;20.908;2023-05-10T05:16:25;100925.00;;;12.00
45850;BMP180;10739;52.198;20.908;2023-05-10T05:18:52;100926.00;;;12.30
45850;BMP180;10739;52.198;20.908;2023-05-10T05:21:20;100926.00;;;12.80
45850;BMP180;10739;52.198;20.908;2023-05-10T05:23:46;100926.00;;;12.50
45850;BMP180;10739;52.198;20.908;2023-05-10T05:26:12;100918.00;;;13.10
45850;BMP180;10739;52.198;20.908;2023-05-10T05:28:39;100924.00;;;12.60
45850;BMP180;10739;52.198;20.908;2023-05-10T05:31:06;100929.00;;;12.80
45850;BMP180;10739;52.198;20.908;2023-05-10T05:33:36;100918.00;;;13.00
45850;BMP180;10739;52.198;20.908;2023-05-10T05:36:04;100923.00;;;13.20
45850;BMP180;10739;52.198;20.908;2023-05-10T05:38:31;100922.00;;;12.90
45850;BMP180;10739;52.198;20.908;2023-05-10T05:40:58;100918.00;;;13.40
45850;BMP180;10739;52.198;20.908;2023-05-10T05:43:24;100926.00;;;13.30
45850;BMP180;10739;52.198;20.908;2023-05-10T05:45:52;100926.00;;;13.30
45850;BMP180;10739;52.198;20.908;2023-05-10T05:48:20;100917.00;;;13.50
45850;BMP180;10739;52.198;20.908;2023-05-10T05:50:46;100919.00;;;13.80
45850;BMP180;10739;52.198;20.908;2023-05-10T05:53:13;100923.00;;;13.70
45850;BMP180;10739;52.198;20.908;2023-05-10T05:55:39;100930.00;;;14.00
45850;BMP180;10739;52.198;20.908;2023-05-10T05:58:26;100929.00;;;14.40
45850;BMP180;10739;52.198;20.908;2023-05-10T06:00:53;100937.00;;;13.80
45850;BMP180;10739;52.198;20.908;2023-05-10T06:03:20;100924.00;;;14.00
45850;BMP180;10739;52.198;20.908;2023-05-10T06:05:58;100933.00;;;14.40
45850;BMP180;10739;52.198;20.908;2023-05-10T06:08:25;100930.00;;;14.40
45850;BMP180;10739;52.198;20.908;2023-05-10T06:10:51;100937.00;;;14.50
45850;BMP180;10739;52.198;20.908;2023-05-10T06:13:59;100939.00;;;14.50
45850;BMP180;10739;52.198;20.908;2023-05-10T06:16:28;100930.00;;;14.80
45850;BMP180;10739;52.198;20.908;2023-05-10T06:19:12;100932.00;;;14.90
45850;BMP180;10739;52.198;20.908;2023-05-10T06:21:41;100922.00;;;15.10
45850;BMP180;10739;52.198;20.908;2023-05-10T06:24:07;100923.00;;;15.30
45850;BMP180;10739;52.198;20.908;2023-05-10T06:26:34;100927.00;;;15.60
45850;BMP180;10739;52.198;20.908;2023-05-10T06:29:00;100925.00;;;15.40
45850;BMP180;10739;52.198;20.908;2023-05-10T06:31:27;100926.00;;;15.40
45850;BMP180;10739;52.198;20.908;2023-05-10T06:33:53;100916.00;;;15.60
45850;BMP180;10739;52.198;20.908;2023-05-10T06:36:19;100926.00;;;15.50
45850;BMP180;10739;52.198;20.908;2023-05-10T06:38:45;100923.00;;;15.50
45850;BMP180;10739;52.198;20.908;2023-05-10T06:41:12;100928.00;;;15.80
45850;BMP180;10739;52.198;20.908;2023-05-10T06:43:38;100925.00;;;15.80
45850;BMP180;10739;52.198;20.908;2023-05-10T06:46:07;100919.00;;;15.70
45850;BMP180;10739;52.198;20.908;2023-05-10T06:48:33;100920.00;;;16.10
45850;BMP180;10739;52.198;20.908;2023-05-10T06:51:00;100924.00;;;16.20
45850;BMP180;10739;52.198;20.908;2023-05-10T06:53:26;100921.00;;;16.10
45850;BMP180;10739;52.198;20.908;2023-05-10T06:55:53;100926.00;;;16.20
45850;BMP180;10739;52.198;20.908;2023-05-10T06:58:19;100915.00;;;17.10
45850;BMP180;10739;52.198;20.908;2023-05-10T07:00:45;100916.00;;;16.90
45850;BMP180;10739;52.198;20.908;2023-05-10T07:03:13;100923.00;;;16.80
45850;BMP180;10739;52.198;20.908;2023-05-10T07:05:39;100909.00;;;16.50
45850;BMP180;10739;52.198;20.908;2023-05-10T07:08:06;100916.00;;;16.80
45850;BMP180;10739;52.198;20.908;2023-05-10T07:10:33;100924.00;;;16.80
45850;BMP180;10739;52.198;20.908;2023-05-10T07:12:59;100925.00;;;17.10
45850;BMP180;10739;52.198;20.908;2023-05-10T07:15:27;100924.00;;;17.50
45850;BMP180;10739;52.198;20.908;2023-05-10T07:17:53;100920.00;;;17.20
45850;BMP180;10739;52.198;20.908;2023-05-10T07:20:20;100905.00;;;17.70
45850;BMP180;10739;52.198;20.908;2023-05-10T07:22:46;100913.00;;;17.40
45850;BMP180;10739;52.198;20.908;2023-05-10T07:25:12;100914.00;;;17.00
45850;BMP180;10739;52.198;20.908;2023-05-10T07:27:39;100915.00;;;17.20
45850;BMP180;10739;52.198;20.908;2023-05-10T07:30:06;100905.00;;;17.40
45850;BMP180;10739;52.198;20.908;2023-05-10T07:32:32;100918.00;;;17.80
45850;BMP180;10739;52.198;20.908;2023-05-10T07:34:59;100915.00;;;18.00
45850;BMP180;10739;52.198;20.908;2023-05-10T07:37:25;100925.00;;;18.20
45850;BMP180;10739;52.198;20.908;2023-05-10T07:39:51;100921.00;;;18.10
45850;BMP180;10739;52.198;20.908;2023-05-10T07:42:17;100916.00;;;18.30
45850;BMP180;10739;52.198;20.908;2023-05-10T07:44:44;100910.00;;;18.10
45850;BMP180;10739;52.198;20.908;2023-05-10T07:47:11;100915.00;;;18.70
45850;BMP180;10739;52.198;20.908;2023-05-10T07:49:37;100906.00;;;18.50
45850;BMP180;10739;52.198;20.908;2023-05-10T07:52:04;100914.00;;;18.90
45850;BMP180;10739;52.198;20.908;2023-05-10T07:54:30;100909.00;;;18.60
45850;BMP180;10739;52.198;20.908;2023-05-10T07:56:57;100911.00;;;18.70
45850;BMP180;10739;52.198;20.908;2023-05-10T07:59:23;100906.00;;;19.00
45850;BMP180;10739;52.198;20.908;2023-05-10T08:01:49;100908.00;;;18.70
45850;BMP180;10739;52.198;20.908;2023-05-10T08:04:16;100898.00;;;18.80
45850;BMP180;10739;52.198;20.908;2023-05-10T08:06:42;100899.00;;;18.50
45850;BMP180;10739;52.198;20.908;2023-05-10T08:09:08;100897.00;;;18.60
45850;BMP180;10739;52.198;20.908;2023-05-10T08:11:35;100902.00;;;18.50
45850;BMP180;10739;52.198;20.908;2023-05-10T08:14:01;100891.00;;;18.70
45850;BMP180;10739;52.198;20.908;2023-05-10T08:16:27;100893.00;;;18.70
45850;BMP180;10739;52.198;20.908;2023-05-10T08:18:54;100908.00;;;18.70
45850;BMP180;10739;52.198;20.908;2023-05-10T08:21:21;100891.00;;;18.80
45850;BMP180;10739;52.198;20.908;2023-05-10T08:23:47;100894.00;;;19.30
45850;BMP180;10739;52.198;20.908;2023-05-10T08:26:14;100891.00;;;18.90
45850;BMP180;10739;52.198;20.908;2023-05-10T08:28:41;100898.00;;;19.30
45850;BMP180;10739;52.198;20.908;2023-05-10T08:31:07;100893.00;;;19.30
45850;BMP180;10739;52.198;20.908;2023-05-10T08:33:33;100903.00;;;19.50
45850;BMP180;10739;52.198;20.908;2023-05-10T08:36:00;100896.00;;;19.10
45850;BMP180;10739;52.198;20.908;2023-05-10T08:38:26;100901.00;;;19.20
45850;BMP180;10739;52.198;20.908;2023-05-10T08:40:55;100906.00;;;20.10
45850;BMP180;10739;52.198;20.908;2023-05-10T08:43:26;100904.00;;;20.70
45850;BMP180;10739;52.198;20.908;2023-05-10T08:45:55;100897.00;;;20.10
45850;BMP180;10739;52.198;20.908;2023-05-10T08:48:24;100909.00;;;19.70
45850;BMP180;10739;52.198;20.908;2023-05-10T08:50:53;100903.00;;;19.80
45850;BMP180;10739;52.198;20.908;2023-05-10T08:53:23;100901.00;;;20.00
45850;BMP180;10739;52.198;20.908;2023-05-10T08:55:51;100901.00;;;20.20
45850;BMP180;10739;52.198;20.908;2023-05-10T08:58:19;100898.00;;;20.40
45850;BMP180;10739;52.198;20.908;2023-05-10T09:00:48;100898.00;;;20.50
45850;BMP180;10739;52.198;20.908;2023-05-10T09:03:15;100893.00;;;21.00
45850;BMP180;10739;52.198;20.908;2023-05-10T09:05:43;100880.00;;;20.80
45850;BMP180;10739;52.198;20.908;2023-05-10T09:08:11;100884.00;;;20.60
45850;BMP180;10739;52.198;20.908;2023-05-10T09:10:48;100877.00;;;21.00
45850;BMP180;10739;52.198;20.908;2023-05-10T09:13:15;100883.00;;;20.90
45850;BMP180;10739;52.198;20.908;2023-05-10T09:15:45;100877.00;;;21.80
45850;BMP180;10739;52.198;20.908;2023-05-10T09:18:12;100876.00;;;21.20
45850;BMP180;10739;52.198;20.908;2023-05-10T09:20:38;100870.00;;;21.10
45850;BMP180;10739;52.198;20.908;2023-05-10T09:23:05;100871.00;;;21.30
45850;BMP180;10739;52.198;20.908;2023-05-10T09:25:32;100874.00;;;21.40
45850;BMP180;10739;52.198;20.908;2023-05-10T09:28:00;100872.00;;;21.80
45850;BMP180;10739;52.198;20.908;2023-05-10T09:30:28;100881.00;;;22.00
45850;BMP180;10739;52.198;20.908;2023-05-10T09:32:56;100873.00;;;21.80
45850;BMP180;10739;52.198;20.908;2023-05-10T09:35:29;100867.00;;;21.90
45850;BMP180;10739;52.198;20.908;2023-05-10T09:38:03;100872.00;;;21.70
45850;BMP180;10739;52.198;20.908;2023-05-10T09:40:31;100878.00;;;22.70
45850;BMP180;10739;52.198;20.908;2023-05-10T09:43:07;100885.00;;;22.70
45850;BMP180;10739;52.198;20.908;2023-05-10T09:45:35;100873.00;;;22.50
45850;BMP180;10739;52.198;20.908;2023-05-10T09:48:03;100871.00;;;22.50
45850;BMP180;10739;52.198;20.908;2023-05-10T09:50:30;100876.00;;;22.40
45850;BMP180;10739;52.198;20.908;2023-05-10T09:52:59;100873.00;;;22.80
45850;BMP180;10739;52.198;20.908;2023-05-10T09:58:05;100859.00;;;23.50
45850;BMP180;10739;52.198;20.908;2023-05-10T10:00:44;100869.00;;;23.10
45850;BMP180;10739;52.198;20.908;2023-05-10T10:03:27;100869.00;;;24.00
45850;BMP180;10739;52.198;20.908;2023-05-10T10:06:07;100868.00;;;24.30
45850;BMP180;10739;52.198;20.908;2023-05-10T10:08:34;100846.00;;;24.10
45850;BMP180;10739;52.198;20.908;2023-05-10T10:11:00;100857.00;;;23.90
45850;BMP180;10739;52.198;20.908;2023-05-10T10:13:27;100847.00;;;24.20
45850;BMP180;10739;52.198;20.908;2023-05-10T10:15:54;100844.00;;;24.30
45850;BMP180;10739;52.198;20.908;2023-05-10T10:18:21;100847.00;;;23.60
45850;BMP180;10739;52.198;20.908;2023-05-10T10:20:54;100852.00;;;23.20
45850;BMP180;10739;52.198;20.908;2023-05-10T10:23:22;100834.00;;;23.80
45850;BMP180;10739;52.198;20.908;2023-05-10T10:25:49;100851.00;;;24.10
45850;BMP180;10739;52.198;20.908;2023-05-10T10:28:42;100843.00;;;24.40
45850;BMP180;10739;52.198;20.908;2023-05-10T10:31:46;100843.00;;;25.10
45850;BMP180;10739;52.198;20.908;2023-05-10T10:34:26;100825.00;;;24.10
45850;BMP180;10739;52.198;20.908;2023-05-10T10:36:57;100836.00;;;24.80
45850;BMP180;10739;52.198;20.908;2023-05-10T10:39:24;100826.00;;;25.70
45850;BMP180;10739;52.198;20.908;2023-05-10T10:41:56;100853.00;;;25.90
45850;BMP180;10739;52.198;20.908;2023-05-10T10:47:09;100833.00;;;25.30
45850;BMP180;10739;52.198;20.908;2023-05-10T10:52:28;100831.00;;;23.80
45850;BMP180;10739;52.198;20.908;2023-05-10T10:55:17;100836.00;;;24.10
45850;BMP180;10739;52.198;20.908;2023-05-10T10:57:49;100820.00;;;24.20
45850;BMP180;10739;52.198;20.908;2023-05-10T11:00:31;100825.00;;;24.00
45850;BMP180;10739;52.198;20.908;2023-05-10T11:03:15;100834.00;;;24.60
45850;BMP180;10739;52.198;20.908;2023-05-10T11:05:49;100817.00;;;24.40
45850;BMP180;10739;52.198;20.908;2023-05-10T11:08:27;100821.00;;;24.90
45850;BMP180;10739;52.198;20.908;2023-05-10T11:11:06;100824.00;;;24.70
45850;BMP180;10739;52.198;20.908;2023-05-10T11:16:21;100810.00;;;24.80
45850;BMP180;10739;52.198;20.908;2023-05-10T11:18:58;100814.00;;;25.80
45850;BMP180;10739;52.198;20.908;2023-05-10T11:21:25;100807.00;;;25.30
45850;BMP180;10739;52.198;20.908;2023-05-10T11:23:57;100815.00;;;24.50
45850;BMP180;10739;52.198;20.908;2023-05-10T11:26:30;100815.00;;;25.40
45850;BMP180;10739;52.198;20.908;2023-05-10T11:28:57;100809.00;;;25.40
45850;BMP180;10739;52.198;20.908;2023-05-10T11:31:26;100814.00;;;25.20
45850;BMP180;10739;52.198;20.908;2023-05-10T11:33:55;100809.00;;;25.00
45850;BMP180;10739;52.198;20.908;2023-05-10T11:36:26;100797.00;;;25.90
45850;BMP180;10739;52.198;20.908;2023-05-10T11:38:54;100801.00;;;25.90
45850;BMP180;10739;52.198;20.908;2023-05-10T11:41:23;100808.00;;;25.60
45850;BMP180;10739;52.198;20.908;2023-05-10T11:43:52;100798.00;;;25.20
45850;BMP180;10739;52.198;20.908;2023-05-10T11:46:24;100797.00;;;25.90
45850;BMP180;10739;52.198;20.908;2023-05-10T11:49:03;100804.00;;;24.80
45850;BMP180;10739;52.198;20.908;2023-05-10T11:51:36;100797.00;;;25.40
45850;BMP180;10739;52.198;20.908;2023-05-10T11:54:07;100796.00;;;24.90
45850;BMP180;10739;52.198;20.908;2023-05-10T11:56:39;100788.00;;;25.60
45850;BMP180;10739;52.198;20.908;2023-05-10T11:59:06;100792.00;;;25.70
45850;BMP180;10739;52.198;20.908;2023-05-10T12:01:34;100797.00;;;26.10
45850;BMP180;10739;52.198;20.908;2023-05-10T12:04:01;100792.00;;;25.80
45850;BMP180;10739;52.198;20.908;2023-05-10T12:06:30;100792.00;;;26.80
45850;BMP180;10739;52.198;20.908;2023-05-10T12:08:58;100787.00;;;26.80
45850;BMP180;10739;52.198;20.908;2023-05-10T12:11:26;100788.00;;;25.90
45850;BMP180;10739;52.198;20.908;2023-05-10T12:13:55;100790.00;;;26.20
45850;BMP180;10739;52.198;20.908;2023-05-10T12:16:29;100777.00;;;25.40
45850;BMP180;10739;52.198;20.908;2023-05-10T12:19:00;100780.00;;;25.60
45850;BMP180;10739;52.198;20.908;2023-05-10T12:21:29;100788.00;;;25.70
45850;BMP180;10739;52.198;20.908;2023-05-10T12:24:02;100786.00;;;25.50
45850;BMP180;10739;52.198;20.908;2023-05-10T12:26:29;100790.00;;;26.30
45850;BMP180;10739;52.198;20.908;2023-05-10T12:29:15;100791.00;;;26.40
45850;BMP180;10739;52.198;20.908;2023-05-10T12:31:59;100797.00;;;25.90
45850;BMP180;10739;52.198;20.908;2023-05-10T12:34:33;100803.00;;;26.50
45850;BMP180;10739;52.198;20.908;2023-05-10T12:37:00;100788.00;;;26.50
45850;BMP180;10739;52.198;20.908;2023-05-10T12:39:39;100787.00;;;25.90
45850;BMP180;10739;52.198;20.908;2023-05-10T12:42:06;100780.00;;;25.60
45850;BMP180;10739;52.198;20.908;2023-05-10T12:44:33;100783.00;;;25.40
45850;BMP180;10739;52.198;20.908;2023-05-10T12:46:59;100781.00;;;25.20
45850;BMP180;10739;52.198;20.908;2023-05-10T12:49:25;100793.00;;;25.50
45850;BMP180;10739;52.198;20.908;2023-05-10T12:51:51;100781.00;;;25.40
45850;BMP180;10739;52.198;20.908;2023-05-10T12:54:18;100782.00;;;25.20
45850;BMP180;10739;52.198;20.908;2023-05-10T12:56:44;100778.00;;;25.60
45850;BMP180;10739;52.198;20.908;2023-05-10T12:59:10;100774.00;;;25.10
45850;BMP180;10739;52.198;20.908;2023-05-10T13:01:37;100774.00;;;25.50
45850;BMP180;10739;52.198;20.908;2023-05-10T13:04:03;100764.00;;;25.90
45850;BMP180;10739;52.198;20.908;2023-05-10T13:06:29;100767.00;;;26.00
45850;BMP180;10739;52.198;20.908;2023-05-10T13:08:56;100765.00;;;27.00
45850;BMP180;10739;52.198;20.908;2023-05-10T13:11:23;100770.00;;;26.30
45850;BMP180;10739;52.198;20.908;2023-05-10T13:13:51;100767.00;;;25.50
45850;BMP180;10739;52.198;20.908;2023-05-10T13:16:17;100770.00;;;25.80
45850;BMP180;10739;52.198;20.908;2023-05-10T13:18:43;100772.00;;;25.70
45850;BMP180;10739;52.198;20.908;2023-05-10T13:21:10;100771.00;;;25.70
45850;BMP180;10739;52.198;20.908;2023-05-10T13:23:37;100770.00;;;26.20
45850;BMP180;10739;52.198;20.908;2023-05-10T13:26:03;100768.00;;;25.50
45850;BMP180;10739;52.198;20.908;2023-05-10T13:28:29;100767.00;;;26.10
45850;BMP180;10739;52.198;20.908;2023-05-10T13:30:56;100760.00;;;26.00
45850;BMP180;10739;52.198;20.908;2023-05-10T13:33:23;100762.00;;;25.90
45850;BMP180;10739;52.198;20.908;2023-05-10T13:35:49;100756.00;;;25.30
45850;BMP180;10739;52.198;20.908;2023-05-10T13:38:16;100755.00;;;25.40
45850;BMP180;10739;52.198;20.908;2023-05-10T13:40:42;100758.00;;;25.40
45850;BMP180;10739;52.198;20.908;2023-05-10T13:43:08;100753.00;;;25.70
45850;BMP180;10739;52.198;20.908;2023-05-10T13:45:34;100760.00;;;25.40
45850;BMP180;10739;52.198;20.908;2023-05-10T13:48:01;100752.00;;;25.60
45850;BMP180;10739;52.198;20.908;2023-05-10T13:50:28;100749.00;;;26.00
45850;BMP180;10739;52.198;20.908;2023-05-10T13:52:54;100750.00;;;25.60
45850;BMP180;10739;52.198;20.908;2023-05-10T13:55:21;100748.00;;;26.30
45850;BMP180;10739;52.198;20.908;2023-05-10T13:57:47;100751.00;;;25.90
45850;BMP180;10739;52.198;20.908;2023-05-10T14:00:14;100748.00;;;25.90
45850;BMP180;10739;52.198;20.908;2023-05-10T14:02:40;100744.00;;;26.10
45850;BMP180;10739;52.198;20.908;2023-05-10T14:05:07;100745.00;;;25.60
45850;BMP180;10739;52.198;20.908;2023-05-10T14:07:33;100737.00;;;25.60
45850;BMP180;10739;52.198;20.908;2023-05-10T14:10:00;100730.00;;;25.80
45850;BMP180;10739;52.198;20.908;2023-05-10T14:12:26;100739.00;;;25.40
45850;BMP180;10739;52.198;20.908;2023-05-10T14:14:53;100739.00;;;25.30
45850;BMP180;10739;52.198;20.908;2023-05-10T14:17:19;100738.00;;;25.60